Terminal Aerodrome Forecast
Issued by NWS

Home | Current Version | Previous Version | Text Only | Print | Product List | Glossary Off
Versions: 1 2 3 4 5 6 7 8 9 10 11 12 13 14 15 16 17 18 19

000
FTUS42 KMHX 210419 AAB
TAFPGV
TAF AMD
KPGV 210419Z 2104/2124 VRB04KT 6SM -RA SCT007 OVC012
      TEMPO 2104/2108 5SM BR BKN005
     FM211200 22006KT 6SM BR VCSH SCT020 OVC030
     FM211500 23008KT P6SM SCT025 OVC040
      AMD LTD TO CLD VIS AND WIND=

USA.gov is the U.S. government's official web portal to all federal, state and local government web resources and services.